Austin, Utah
Current Conditions -  °F | °C
As of 3:52 PM on Thursday 27 Nov 2014 (Local Time) from KMLF Reporting Station
Clear Clear  
Wind Chill: 57°   Ceiling: Unl
Heat Index: 57°   Visibility: 10mi
Dew Point: 22°   Wind: 15mph
Humidity: 26%   Direction: 190°S
Pressure: 30.23"   Gusts: NA
Location:  38.6125°N, 112.081°W
Report Text: KMLF 272252Z AUTO 19013KT 10SM CLR 14/M06 A3023 RMK AO2 SLP229 T01391056 TSNO
Loading
Personal Weather Stations






























Interactive Weather Map New forecast layout! Learn more

10-Day Weather Forecast

Advertisements
Track Severe Weather on mobile